Time;durP1;ratioP1;P1;durP2;ratioP2;P2;SDS_P1;SDS_P2;PMS_P1;PMS_P2;Temp;Humidity;BMP_temperature;BMP_pressure;BME280_temperature;BME280_humidity;BME280_pressure;Samples;Min_cycle;Max_cycle;Signal;HPM_P1;HPM_P2
2023/01/04 00:01:45;;;;;;;51.42;21.55;;;;;;;3.57;100.00;98494.34;6243095;23;20004;-76
2023/01/04 00:04:11;;;;;;;58.55;24.50;;;;;;;3.51;100.00;98487.38;6217572;23;20004;-77
2023/01/04 00:06:37;;;;;;;49.50;22.95;;;;;;;3.55;100.00;98499.66;6242694;23;20012;-77
2023/01/04 00:09:02;;;;;;;65.90;27.75;;;;;;;3.58;100.00;98510.19;6217450;23;20004;-76
2023/01/04 00:11:28;;;;;;;63.78;27.83;;;;;;;3.59;100.00;98498.72;6242978;23;20444;-77
2023/01/04 00:13:56;;;;;;;72.78;30.42;;;;;;;3.63;100.00;98503.00;6217638;23;20008;-76
2023/01/04 00:16:23;;;;;;;80.10;32.53;;;;;;;3.65;100.00;98505.66;6217247;23;20011;-76
2023/01/04 00:18:50;;;;;;;74.80;33.80;;;;;;;3.68;100.00;98513.53;6242566;23;20020;-77
2023/01/04 00:21:26;;;;;;;89.78;36.47;;;;;;;3.60;100.00;98507.53;6217579;23;20338;-75
2023/01/04 00:23:53;;;;;;;83.43;32.83;;;;;;;3.60;100.00;98502.22;6217555;23;20360;-76
2023/01/04 00:26:25;;;;;;;87.10;36.63;;;;;;;3.65;100.00;98506.53;6217747;23;20007;-76
2023/01/04 00:29:01;;;;;;;80.20;35.10;;;;;;;3.66;100.00;98510.88;6217341;23;20471;-75
2023/01/04 00:31:27;;;;;;;62.40;26.17;;;;;;;3.60;100.00;98512.81;6217176;23;20015;-77
2023/01/04 00:33:54;;;;;;;66.78;28.13;;;;;;;3.56;100.00;98512.00;6217273;23;20008;-76
2023/01/04 00:36:20;;;;;;;69.30;29.77;;;;;;;3.52;100.00;98515.56;6217105;23;20058;-76
2023/01/04 00:38:46;;;;;;;67.22;28.73;;;;;;;3.44;100.00;98506.94;6217100;23;20000;-76
2023/01/04 00:41:13;;;;;;;75.80;32.30;;;;;;;3.34;100.00;98515.91;6217343;23;20079;-76
2023/01/04 00:43:39;;;;;;;78.97;30.10;;;;;;;3.22;100.00;98517.00;6242310;23;20008;-76
2023/01/04 00:46:06;;;;;;;75.25;30.67;;;;;;;3.27;100.00;98527.50;6217024;23;20407;-75
2023/01/04 00:48:32;;;;;;;80.43;33.03;;;;;;;3.23;100.00;98525.81;6242202;23;20020;-76
2023/01/04 00:50:58;;;;;;;84.65;30.98;;;;;;;3.26;100.00;98520.47;6217128;23;20035;-76
2023/01/04 00:53:24;;;;;;;73.32;28.45;;;;;;;3.16;100.00;98521.53;6242432;23;20000;-76
2023/01/04 00:55:50;;;;;;;72.85;27.23;;;;;;;3.11;100.00;98528.63;6216849;23;20008;-75
2023/01/04 00:58:15;;;;;;;67.82;27.88;;;;;;;3.05;100.00;98523.47;6217085;23;20020;-76
2023/01/04 01:00:41;;;;;;;75.38;30.20;;;;;;;3.01;100.00;98521.78;6242323;23;20406;-76
2023/01/04 01:03:06;;;;;;;72.35;31.02;;;;;;;2.99;100.00;98520.91;6216956;23;20045;-75
2023/01/04 01:05:34;;;;;;;83.40;35.05;;;;;;;3.00;100.00;98533.25;6217149;23;20087;-76
2023/01/04 01:08:23;;;;;;;67.65;27.27;;;;;;;2.98;100.00;98545.63;6242419;23;20027;-76
2023/01/04 01:10:45;;;;;;;47.90;20.55;;;;;;;2.80;100.00;98538.81;6242446;23;20004;-75
2023/01/04 01:13:11;;;;;;;48.67;20.92;;;;;;;2.56;100.00;98516.31;6216847;23;20035;-76
2023/01/04 01:15:36;;;;;;;49.00;22.42;;;;;;;2.52;100.00;98535.72;6217147;23;20092;-76
2023/01/04 01:18:02;;;;;;;64.72;25.92;;;;;;;2.48;100.00;98552.53;6217446;23;20004;-77
2023/01/04 01:20:27;;;;;;;50.55;23.00;;;;;;;2.58;100.00;98569.13;6217014;23;20035;-76
2023/01/04 01:22:53;;;;;;;46.47;22.20;;;;;;;2.52;100.00;98561.28;6242396;23;20004;-76
2023/01/04 01:25:18;;;;;;;52.78;21.25;;;;;;;2.43;100.00;98554.31;6216728;23;20004;-76
2023/01/04 01:27:44;;;;;;;62.15;23.40;;;;;;;2.45;100.00;98552.56;6216792;23;20058;-77
2023/01/04 01:30:10;;;;;;;48.05;21.50;;;;;;;2.54;100.00;98556.84;6241956;23;20448;-76
2023/01/04 01:32:38;;;;;;;56.70;23.83;;;;;;;2.39;100.00;98542.09;6217128;23;20011;-76
2023/01/04 01:35:04;;;;;;;59.50;24.23;;;;;;;2.48;100.00;98556.91;6217386;23;20436;-77
2023/01/04 01:37:30;;;;;;;53.10;20.45;;;;;;;2.52;100.00;98564.75;6216885;23;20014;-76
2023/01/04 01:39:56;;;;;;;52.38;21.92;;;;;;;2.53;100.00;98552.44;6242250;23;20035;-77
2023/01/04 01:42:22;;;;;;;58.63;24.23;;;;;;;2.64;100.00;98561.97;6216674;23;20062;-75
2023/01/04 01:44:58;;;;;;;59.47;23.65;;;;;;;2.63;100.00;98547.03;6242193;23;20010;-76
2023/01/04 01:47:36;;;;;;;51.78;23.08;;;;;;;2.60;100.00;98551.47;6216438;23;20016;-76
2023/01/04 01:50:03;;;;;;;53.65;22.95;;;;;;;2.67;100.00;98561.94;6216864;23;20401;-76
2023/01/04 01:52:36;;;;;;;63.47;24.70;;;;;;;2.72;100.00;98562.72;6216843;23;20356;-75
2023/01/04 01:55:04;;;;;;;51.80;24.13;;;;;;;2.70;100.00;98545.16;6216793;23;20004;-77
2023/01/04 01:57:32;;;;;;;53.35;23.83;;;;;;;2.67;100.00;98535.53;6216777;23;20011;-75
2023/01/04 02:00:02;;;;;;;53.42;21.45;;;;;;;2.74;100.00;98550.38;6242138;23;20004;-76
2023/01/04 02:02:28;;;;;;;54.40;22.35;;;;;;;2.73;100.00;98540.72;6216609;23;20007;-76
2023/01/04 02:04:54;;;;;;;47.60;21.55;;;;;;;2.68;100.00;98531.97;6242218;23;20059;-76
2023/01/04 02:07:23;;;;;;;58.35;24.30;;;;;;;2.80;100.00;98544.09;6216638;23;20008;-76
2023/01/04 02:09:49;;;;;;;52.97;22.75;;;;;;;2.74;100.00;98547.72;6244215;23;20065;-77
2023/01/04 02:12:15;;;;;;;44.28;21.05;;;;;;;2.69;100.00;98539.00;6218529;23;20008;-76
2023/01/04 02:14:43;;;;;;;55.42;22.88;;;;;;;2.64;100.00;98540.84;6218614;23;20043;-76
2023/01/04 02:17:14;;;;;;;56.05;23.35;;;;;;;2.64;100.00;98538.22;6218854;23;20446;-76
2023/01/04 02:20:17;;;;;;;51.97;22.63;;;;;;;2.55;100.00;98548.88;6243957;23;20440;-76
2023/01/04 02:23:22;;;;;;;54.55;22.35;;;;;;;2.62;100.00;98552.31;6243713;23;20231;-76
2023/01/04 02:26:06;;;;;;;46.08;20.67;;;;;;;2.58;100.00;98548.88;6182591;23;20011;-76
2023/01/04 02:29:09;;;;;;;53.55;21.65;;;;;;;2.60;100.00;98549.72;6245030;22;20008;-75
2023/01/04 02:31:40;;;;;;;;;;;;;;;2.60;100.00;98555.00;6245534;23;20000;-76
2023/01/04 02:34:17;;;;;;;52.75;21.92;;;;;;;2.53;100.00;98555.97;6245307;22;19904;-76
2023/01/04 02:37:10;;;;;;;58.08;23.70;;;;;;;2.42;100.00;98557.88;6218806;23;20004;-79
2023/01/04 02:39:38;;;;;;;68.03;29.50;;;;;;;2.41;100.00;98561.41;6218162;23;20010;-75
2023/01/04 02:45:19;;;;;;;71.57;26.60;;;;;;;2.35;100.00;98545.66;6245107;23;20369;-77
2023/01/04 02:50:50;;;;;;;92.72;36.72;;;;;;;2.31;100.00;98564.22;6243855;23;20014;-75
2023/01/04 02:53:23;;;;;;;82.30;35.53;;;;;;;2.22;100.00;98554.63;6218014;23;20004;-76
2023/01/04 02:56:08;;;;;;;74.25;31.48;;;;;;;2.18;100.00;98571.41;6218336;23;20008;-76
2023/01/04 02:58:44;;;;;;;92.05;30.35;;;;;;;2.10;100.00;98570.59;6243167;23;20359;-76
2023/01/04 03:08:05;;;;;;;61.33;26.85;;;;;;;1.95;100.00;98570.78;6244856;23;20440;-75
2023/01/04 03:10:40;;;;;;;45.72;22.00;;;;;;;1.93;100.00;98562.03;6159027;23;20345;-76
2023/01/04 03:13:25;;;;;;;47.97;22.00;;;;;;;1.82;100.00;98559.50;6243632;23;20000;-76
2023/01/04 03:16:00;;;;;;;61.08;26.17;;;;;;;1.83;100.00;98563.00;6217985;23;20077;-76
2023/01/04 03:18:29;;;;;;;54.65;24.98;;;;;;;1.80;100.00;98566.56;6217753;23;20059;-76
2023/01/04 03:20:56;;;;;;;57.38;22.83;;;;;;;1.83;100.00;98573.56;6217623;23;20105;-75
2023/01/04 03:37:48;;;;;;;65.32;25.17;;;;;;;1.77;100.00;98578.91;6243551;23;20098;-75
2023/01/04 03:49:07;;;;;;;51.05;23.02;;;;;;;1.76;100.00;98582.41;6243819;23;20478;-75
2023/01/04 03:51:36;;;;;;;58.13;22.58;;;;;;;1.77;100.00;98586.81;6218293;23;20008;-75
2023/01/04 03:54:47;;;;;;;49.88;21.08;;;;;;;1.58;100.00;98560.66;6243037;23;20352;-77
2023/01/04 03:57:21;;;;;;;44.05;19.50;;;;;;;1.71;100.00;98577.22;6152645;23;20006;-77
2023/01/04 03:59:51;;;;;;;48.22;19.35;;;;;;;1.72;100.00;98586.88;6151825;23;20009;-76
2023/01/04 04:02:22;;;;;;;41.92;18.00;;;;;;;1.81;100.00;98601.72;6189074;23;20086;-75
2023/01/04 04:10:16;;;;;;;48.03;20.30;;;;;;;1.77;100.00;98592.97;6243171;23;20011;-76
2023/01/04 04:12:42;;;;;;;46.97;20.70;;;;;;;1.85;100.00;98601.66;6242810;23;20004;-75
2023/01/04 04:15:08;;;;;;;47.35;20.88;;;;;;;1.88;100.00;98608.66;6217507;23;20078;-75
2023/01/04 04:17:33;;;;;;;46.50;21.17;;;;;;;1.76;100.00;98603.53;6218044;23;20381;-75
2023/01/04 04:20:01;;;;;;;46.78;22.77;;;;;;;1.72;100.00;98604.47;6244318;22;20011;-75
2023/01/04 04:22:27;;;;;;;49.08;22.88;;;;;;;1.62;100.00;98588.72;6217407;23;20474;-74
2023/01/04 04:24:52;;;;;;;43.47;19.73;;;;;;;1.59;100.00;98596.69;6242708;23;20015;-77
2023/01/04 04:27:18;;;;;;;36.10;17.60;;;;;;;1.51;100.00;98595.84;6243076;23;20011;-75
2023/01/04 04:29:43;;;;;;;42.88;19.02;;;;;;;1.54;100.00;98603.72;6217120;23;20015;-75
2023/01/04 04:32:09;;;;;;;50.05;20.83;;;;;;;1.54;100.00;98590.56;6241969;23;20011;-76
2023/01/04 04:34:36;;;;;;;38.60;19.08;;;;;;;1.59;100.00;98608.97;6217267;23;20004;-76
2023/01/04 04:37:01;;;;;;;53.97;23.75;;;;;;;1.55;100.00;98601.97;6217410;23;20364;-75
2023/01/04 04:39:27;;;;;;;48.78;22.35;;;;;;;1.56;100.00;98612.53;6217414;23;20015;-76
2023/01/04 04:41:52;;;;;;;51.70;20.95;;;;;;;1.49;100.00;98604.66;6217222;23;20014;-77
2023/01/04 04:44:19;;;;;;;53.10;23.40;;;;;;;1.44;100.00;98606.47;6242843;23;20062;-79
2023/01/04 04:46:46;;;;;;;53.38;22.27;;;;;;;1.64;100.00;98636.16;6242591;23;20012;-76
2023/01/04 04:49:15;;;;;;;46.28;22.02;;;;;;;1.58;100.00;98638.84;6217012;23;20486;-75
2023/01/04 04:51:41;;;;;;;67.70;27.67;;;;;;;1.57;100.00;98634.47;6217830;23;20008;-75
2023/01/04 04:54:08;;;;;;;74.30;30.50;;;;;;;1.70;100.00;98651.03;6216789;23;20090;-74
2023/01/04 04:56:35;;;;;;;75.65;29.98;;;;;;;1.66;100.00;98637.03;6217392;23;20004;-76
2023/01/04 04:59:02;;;;;;;89.35;36.17;;;;;;;1.74;100.00;98656.28;6242365;23;20452;-76
2023/01/04 05:01:27;;;;;;;91.65;38.78;;;;;;;1.64;100.00;98642.31;6242633;23;20007;-75
2023/01/04 05:03:53;;;;;;;86.50;36.58;;;;;;;1.69;100.00;98649.31;6242113;23;20492;-74
2023/01/04 05:06:19;;;;;;;87.93;35.72;;;;;;;1.76;100.00;98664.19;6216957;23;20032;-75
2023/01/04 05:08:44;;;;;;;81.95;34.38;;;;;;;1.79;100.00;98658.88;6242524;23;20004;-75
2023/01/04 05:11:11;;;;;;;72.63;30.90;;;;;;;1.83;100.00;98692.25;6216699;23;20004;-75
2023/01/04 05:13:37;;;;;;;107.75;42.50;;;;;;;1.63;100.00;98674.84;6217114;23;20486;-75
2023/01/04 05:16:04;;;;;;;98.28;38.85;;;;;;;1.68;100.00;98687.13;6240032;23;20008;-74
2023/01/04 05:18:30;;;;;;;84.63;34.78;;;;;;;1.55;100.00;98670.50;6214558;23;20008;-76
2023/01/04 05:20:55;;;;;;;84.18;32.50;;;;;;;1.56;100.00;98674.91;6214971;23;20098;-76
2023/01/04 05:23:21;;;;;;;88.55;32.92;;;;;;;1.70;100.00;98695.88;6215670;23;20012;-76
2023/01/04 05:25:56;;;;;;;83.68;34.08;;;;;;;1.49;100.00;98676.72;6216128;23;20102;-76
2023/01/04 05:28:22;;;;;;;64.90;30.40;;;;;;;1.53;100.00;98680.22;6241804;23;20004;-76
2023/01/04 05:30:52;;;;;;;75.25;29.67;;;;;;;1.59;100.00;98691.59;6242026;23;20000;-76
2023/01/04 05:33:30;;;;;;;82.25;30.55;;;;;;;1.60;100.00;98701.22;6217304;23;20018;-74
2023/01/04 05:35:58;;;;;;;93.95;36.08;;;;;;;1.52;100.00;98691.63;6241803;23;20011;-76
2023/01/04 05:38:24;;;;;;;90.00;37.95;;;;;;;1.57;100.00;98695.97;6216894;23;20443;-75
2023/01/04 05:40:50;;;;;;;86.88;36.95;;;;;;;1.66;100.00;98695.06;6216737;23;20004;-75
2023/01/04 05:43:17;;;;;;;88.57;38.25;;;;;;;1.56;100.00;98683.69;6217426;23;20016;-75
2023/01/04 05:45:43;;;;;;;95.72;38.28;;;;;;;1.55;100.00;98686.34;6218873;23;20014;-75
2023/01/04 05:48:09;;;;;;;99.00;40.90;;;;;;;1.53;100.00;98682.84;6244226;23;20531;-75
2023/01/04 05:50:35;;;;;;;98.85;40.85;;;;;;;1.60;100.00;98688.03;6218321;23;20038;-75
2023/01/04 05:53:00;;;;;;;105.75;39.72;;;;;;;1.70;100.00;98711.69;6244054;23;20444;-75
2023/01/04 05:55:26;;;;;;;121.82;48.10;;;;;;;1.61;100.00;98700.34;6218659;23;20004;-76
2023/01/04 05:57:52;;;;;;;122.88;45.20;;;;;;;1.67;100.00;98704.69;6219004;23;20350;-75
2023/01/04 06:00:18;;;;;;;124.13;47.45;;;;;;;1.62;100.00;98698.59;6244340;23;20399;-74
2023/01/04 06:02:43;;;;;;;122.18;46.75;;;;;;;1.53;100.00;98688.13;6244074;23;20004;-75
2023/01/04 06:05:10;;;;;;;124.95;51.22;;;;;;;1.41;100.00;98678.56;6218706;23;20368;-76
2023/01/04 06:07:39;;;;;;;121.20;46.83;;;;;;;1.34;100.00;98684.75;6243993;23;20006;-76
2023/01/04 06:10:09;;;;;;;109.43;42.20;;;;;;;1.24;100.00;98677.78;6218869;23;20352;-76
2023/01/04 06:12:34;;;;;;;78.35;35.38;;;;;;;1.25;100.00;98690.09;6244022;23;20012;-76
2023/01/04 06:15:00;;;;;;;108.70;46.58;;;;;;;1.13;100.00;98681.38;6244113;23;20411;-74
2023/01/04 06:17:25;;;;;;;210.27;76.78;;;;;;;1.04;100.00;98688.47;6218486;23;20507;-76
2023/01/04 06:19:51;;;;;;;126.80;48.00;;;;;;;1.05;100.00;98689.31;6218265;23;20008;-75
2023/01/04 06:22:16;;;;;;;88.65;33.75;;;;;;;1.08;100.00;98706.00;6243762;23;20082;-76
2023/01/04 06:24:42;;;;;;;63.60;27.58;;;;;;;1.07;100.00;98709.53;6218349;23;20414;-75
2023/01/04 06:27:08;;;;;;;71.63;29.70;;;;;;;0.90;100.00;98705.22;6218287;23;20392;-75
2023/01/04 06:29:33;;;;;;;68.60;25.45;;;;;;;0.96;100.00;98723.63;6218074;23;20015;-76
2023/01/04 06:31:59;;;;;;;105.80;27.83;;;;;;;1.06;100.00;98735.88;6218456;23;20047;-74
2023/01/04 06:34:24;;;;;;;89.47;27.27;;;;;;;1.05;100.00;98742.88;6244963;23;20058;-75
2023/01/04 06:36:50;;;;;;;104.20;29.83;;;;;;;1.13;100.00;98758.66;6243601;23;20028;-75
2023/01/04 06:39:15;;;;;;;84.10;28.45;;;;;;;1.20;100.00;98763.00;6218420;23;20011;-75
2023/01/04 06:41:41;;;;;;;177.23;43.55;;;;;;;1.29;100.00;98777.91;6243406;23;20510;-76
2023/01/04 06:44:07;;;;;;;145.50;52.15;;;;;;;1.36;100.00;98783.13;6218262;23;20008;-75
2023/01/04 06:46:32;;;;;;;132.63;40.47;;;;;;;1.37;100.00;98782.25;6243154;23;20044;-76
2023/01/04 06:48:58;;;;;;;195.43;52.10;;;;;;;1.31;100.00;98784.03;6217873;23;20011;-76
2023/01/04 06:51:23;;;;;;;198.57;56.50;;;;;;;1.43;100.00;98797.13;6243527;23;20440;-76
2023/01/04 06:53:49;;;;;;;218.55;66.05;;;;;;;1.52;100.00;98791.81;6217581;23;20056;-75
2023/01/04 06:56:15;;;;;;;235.00;71.18;;;;;;;1.52;100.00;98787.41;6243447;23;20004;-76
2023/01/04 06:58:40;;;;;;;175.25;61.20;;;;;;;1.66;100.00;98789.09;6191536;23;20008;-75
2023/01/04 07:01:06;;;;;;;162.15;57.58;;;;;;;1.83;100.00;98787.19;6243430;23;20090;-75
2023/01/04 07:03:32;;;;;;;181.57;63.03;;;;;;;2.31;100.00;98807.06;6217827;23;20004;-75
2023/01/04 07:05:58;;;;;;;150.02;58.22;;;;;;;2.94;100.00;98806.38;6218042;23;20329;-76
2023/01/04 07:08:24;;;;;;;140.02;54.88;;;;;;;3.59;100.00;98789.66;6243402;23;20007;-75
2023/01/04 07:10:49;;;;;;;125.88;49.60;;;;;;;4.01;100.00;98743.13;6243144;23;20082;-77
2023/01/04 07:13:15;;;;;;;129.27;53.47;;;;;;;4.50;100.00;98710.47;6243391;23;20082;-76
2023/01/04 07:15:41;;;;;;;135.60;55.38;;;;;;;4.61;100.00;98674.06;6217739;23;20058;-76
2023/01/04 07:18:08;;;;;;;194.55;77.32;;;;;;;4.28;100.00;98660.56;6218186;23;20004;-75
2023/01/04 07:20:34;;;;;;;124.28;52.22;;;;;;;3.89;100.00;98641.91;6217686;23;20008;-75
2023/01/04 07:23:00;;;;;;;103.03;43.38;;;;;;;3.89;100.00;98661.28;6243504;23;20441;-75
2023/01/04 07:25:25;;;;;;;104.97;43.20;;;;;;;3.91;100.00;98661.28;6243361;23;20007;-75
2023/01/04 07:27:52;;;;;;;154.65;57.95;;;;;;;3.80;100.00;98666.75;6217410;23;20011;-75
2023/01/04 07:30:18;;;;;;;142.80;54.35;;;;;;;3.76;100.00;98665.94;6217803;23;20360;-75
2023/01/04 07:32:44;;;;;;;181.40;62.47;;;;;;;3.68;100.00;98653.72;6217351;23;20004;-75
2023/01/04 07:35:09;;;;;;;212.02;83.20;;;;;;;3.80;100.00;98675.56;6217721;23;20411;-76
2023/01/04 07:37:35;;;;;;;270.60;103.78;;;;;;;4.11;100.00;98675.03;6242883;23;19996;-76
2023/01/04 07:40:00;;;;;;;250.68;103.40;;;;;;;4.50;100.00;98687.50;6243315;23;20062;-76
2023/01/04 07:42:26;;;;;;;191.95;80.22;;;;;;;4.66;100.00;98665.09;6217621;23;20004;-75
2023/01/04 07:44:51;;;;;;;197.93;84.53;;;;;;;4.95;100.00;98667.16;6217570;23;20091;-75
2023/01/04 07:47:17;;;;;;;198.32;85.00;;;;;;;5.34;100.00;98654.75;6242469;23;20099;-75
2023/01/04 07:49:42;;;;;;;168.45;74.93;;;;;;;5.90;100.00;98659.59;6218307;23;20472;-76
2023/01/04 07:52:08;;;;;;;188.60;82.82;;;;;;;6.61;100.00;98648.81;6243549;23;20019;-75
2023/01/04 07:54:33;;;;;;;185.40;81.32;;;;;;;6.91;100.00;98626.63;6217728;23;20008;-76
2023/01/04 07:56:59;;;;;;;201.93;80.43;;;;;;;7.13;100.00;98607.34;6217594;23;20061;-75
2023/01/04 07:59:24;;;;;;;168.30;76.35;;;;;;;7.98;100.00;98606.28;6217838;23;20065;-77
2023/01/04 08:01:50;;;;;;;173.13;71.85;;;;;;;8.47;100.00;98589.44;6242665;23;20360;-77
2023/01/04 08:04:17;;;;;;;142.80;57.80;;;;;;;8.93;100.00;98577.88;6217542;23;20003;-76
2023/01/04 08:06:45;;;;;;;113.53;47.13;;;;;;;8.92;97.80;98560.13;6217451;23;20025;-75
2023/01/04 08:09:11;;;;;;;164.60;61.20;;;;;;;7.95;100.00;98520.25;6217975;23;20004;-75
2023/01/04 08:11:37;;;;;;;170.70;68.55;;;;;;;7.61;100.00;98553.41;6217222;23;20183;-75
2023/01/04 08:14:03;;;;;;;172.27;74.18;;;;;;;7.73;100.00;98552.09;6242561;23;20028;-75
2023/01/04 08:16:32;;;;;;;182.13;74.80;;;;;;;7.34;100.00;98527.72;6242584;23;20004;-75
2023/01/04 08:19:13;;;;;;;166.40;63.60;;;;;;;7.06;100.00;98532.19;6216976;23;20004;-75
2023/01/04 08:21:38;;;;;;;154.90;60.90;;;;;;;7.32;100.00;98549.97;6242748;23;20031;-75
2023/01/04 08:24:04;;;;;;;152.60;61.95;;;;;;;7.60;100.00;98551.66;6216855;23;20012;-75
2023/01/04 08:26:31;;;;;;;177.82;59.88;;;;;;;8.28;100.00;98547.50;6217529;23;20015;-76
2023/01/04 08:28:57;;;;;;;149.27;58.25;;;;;;;8.77;100.00;98549.22;6216785;23;20463;-76
2023/01/04 08:31:25;;;;;;;152.95;63.25;;;;;;;8.94;99.73;98531.63;6242405;23;20456;-75
2023/01/04 08:33:51;;;;;;;161.00;61.95;;;;;;;9.79;92.79;98533.41;6217092;23;20356;-76
2023/01/04 08:36:21;;;;;;;157.55;63.33;;;;;;;10.49;85.92;98528.47;6217042;23;20004;-76
2023/01/04 08:38:48;;;;;;;177.10;69.63;;;;;;;11.46;80.87;98530.97;6243996;22;20054;-76
2023/01/04 08:41:14;;;;;;;184.15;75.90;;;;;;;11.85;76.72;98518.25;6242350;23;20035;-76
2023/01/04 08:43:40;;;;;;;198.15;88.45;;;;;;;12.55;72.00;98511.88;6217038;23;20000;-76
2023/01/04 08:46:06;;;;;;;209.25;95.68;;;;;;;12.74;69.31;98483.03;6217017;23;20018;-78
2023/01/04 08:48:32;;;;;;;221.30;101.65;;;;;;;13.01;67.39;98476.97;6243169;23;20019;-75
2023/01/04 08:51:04;;;;;;;233.07;105.18;;;;;;;13.55;65.70;98483.72;6242564;23;20440;-77
2023/01/04 08:53:30;;;;;;;223.85;105.50;;;;;;;13.92;64.27;98492.28;6217189;23;20008;-76
2023/01/04 08:55:59;;;;;;;208.10;105.88;;;;;;;14.37;62.08;98494.88;6217407;23;20352;-76
2023/01/04 08:58:26;;;;;;;200.20;102.15;;;;;;;14.31;62.17;98483.59;6242588;23;20480;-76
2023/01/04 09:00:51;;;;;;;208.77;100.20;;;;;;;15.00;59.61;98476.47;6216971;23;20503;-76
2023/01/04 09:03:17;;;;;;;180.43;89.68;;;;;;;15.23;58.54;98466.88;6216907;23;20000;-75
2023/01/04 09:05:43;;;;;;;189.57;86.57;;;;;;;15.41;57.97;98470.19;6242193;23;20077;-76
2023/01/04 09:08:10;;;;;;;183.10;85.75;;;;;;;15.39;57.13;98458.63;6242104;23;20034;-75
2023/01/04 09:10:38;;;;;;;193.90;97.07;;;;;;;15.55;56.32;98440.50;6216831;23;20011;-75
2023/01/04 09:13:04;;;;;;;200.13;96.97;;;;;;;15.95;56.28;98455.69;6216937;23;20011;-75
2023/01/04 09:15:31;;;;;;;190.38;89.13;;;;;;;15.86;56.63;98436.56;6216739;23;20015;-76
2023/01/04 09:17:57;;;;;;;147.48;73.13;;;;;;;16.26;56.36;98443.63;6242053;23;20400;-76
2023/01/04 09:20:22;;;;;;;126.28;63.42;;;;;;;15.94;57.18;98440.47;6216589;23;20008;-76
2023/01/04 09:22:48;;;;;;;124.82;59.70;;;;;;;15.93;57.50;98432.47;6242133;23;20083;-75
2023/01/04 09:25:13;;;;;;;117.10;59.50;;;;;;;16.56;56.10;98430.66;6216707;23;20079;-76
2023/01/04 09:27:39;;;;;;;127.95;62.60;;;;;;;16.73;55.07;98429.44;6216873;23;20031;-76
2023/01/04 09:30:05;;;;;;;131.35;61.67;;;;;;;16.99;54.21;98423.00;6242366;23;20000;-76
2023/01/04 09:32:31;;;;;;;129.10;62.40;;;;;;;16.49;55.17;98393.38;6216879;23;20458;-76
2023/01/04 09:34:56;;;;;;;122.55;61.78;;;;;;;16.28;55.89;98402.03;6216780;23;20083;-76
2023/01/04 09:37:22;;;;;;;133.45;64.60;;;;;;;15.15;59.20;98399.13;6216648;23;20012;-76
2023/01/04 09:39:47;;;;;;;117.20;60.03;;;;;;;14.20;63.52;98408.03;6216779;23;20054;-77
2023/01/04 09:42:15;;;;;;;146.10;65.60;;;;;;;13.01;70.94;98438.53;6242559;23;20441;-78
2023/01/04 09:45:13;;;;;;;136.82;66.10;;;;;;;11.75;80.65;98447.31;6216897;23;20034;-77
2023/01/04 09:48:03;;;;;;;122.57;55.50;;;;;;;11.48;85.37;98470.13;6225182;22;20355;-77
2023/01/04 09:50:49;;;;;;;109.55;54.03;;;;;;;10.64;93.38;98484.13;6240850;23;20073;-76
2023/01/04 09:53:22;;;;;;;109.22;53.20;;;;;;;10.45;97.39;98491.25;6216432;23;20009;-76
2023/01/04 09:55:50;;;;;;;107.72;51.75;;;;;;;10.26;100.00;98502.81;6216756;23;20044;-76
2023/01/04 09:58:36;;;;;;;101.32;49.05;;;;;;;9.90;100.00;98504.41;6241676;23;20057;-77
2023/01/04 10:01:05;;;;;;;107.57;49.00;;;;;;;9.85;100.00;98522.44;6216472;23;20010;-77
2023/01/04 10:03:38;;;;;;;110.28;52.17;;;;;;;9.41;100.00;98516.34;6216325;23;20365;-76
2023/01/04 10:06:05;;;;;;;108.65;51.08;;;;;;;9.13;100.00;98515.72;6216457;23;20046;-77
2023/01/04 10:08:31;;;;;;;121.25;50.90;;;;;;;9.16;100.00;98516.47;6216179;23;20006;-76
2023/01/04 10:11:18;;;;;;;97.18;47.45;;;;;;;9.31;100.00;98524.78;6241707;23;20087;-75
2023/01/04 10:14:10;;;;;;;102.50;45.67;;;;;;;9.39;100.00;98534.19;6241416;23;20008;-75
2023/01/04 10:17:02;;;;;;;120.15;53.55;;;;;;;9.31;100.00;98531.00;6241695;23;20010;-77
2023/01/04 10:19:31;;;;;;;118.68;54.42;;;;;;;9.51;100.00;98530.16;6216379;23;20007;-78
2023/01/04 10:22:04;;;;;;;119.63;52.97;;;;;;;9.43;100.00;98526.94;6241896;23;20360;-76
2023/01/04 10:24:46;;;;;;;98.90;45.35;;;;;;;9.21;100.00;98524.28;6216708;23;20101;-76
2023/01/04 10:27:41;;;;;;;103.47;50.15;;;;;;;9.28;100.00;98533.78;6241575;23;20061;-77
2023/01/04 10:30:40;;;;;;;119.55;50.78;;;;;;;9.35;100.00;98531.75;6242928;23;20012;-77
2023/01/04 10:33:32;;;;;;;120.63;56.50;;;;;;;9.48;100.00;98533.81;6227543;23;20011;-77
2023/01/04 10:35:58;;;;;;;121.88;54.92;;;;;;;9.46;100.00;98525.00;6243625;23;20471;-77
2023/01/04 10:38:27;;;;;;;113.88;51.80;;;;;;;9.49;100.00;98532.03;6243245;23;20032;-77
2023/01/04 10:40:56;;;;;;;109.43;50.75;;;;;;;9.44;100.00;98529.56;6218124;23;20031;-75
2023/01/04 10:43:36;;;;;;;113.55;52.50;;;;;;;9.46;100.00;98540.16;6218199;23;20008;-77
2023/01/04 10:46:07;;;;;;;107.47;48.10;;;;;;;9.50;100.00;98547.13;6218096;23;20095;-76
2023/01/04 10:48:51;;;;;;;57.88;30.70;;;;;;;9.36;100.00;98533.47;6217503;23;20017;-76
2023/01/04 10:51:30;;;;;;;55.33;27.33;;;;;;;9.32;100.00;98531.88;6218190;23;20005;-76
2023/01/04 10:54:24;;;;;;;50.88;24.65;;;;;;;9.27;100.00;98535.59;6219027;23;20004;-76
2023/01/04 10:57:12;;;;;;;54.03;24.98;;;;;;;9.27;100.00;98545.38;6243232;23;20110;-75
2023/01/04 10:59:44;;;;;;;54.88;25.15;;;;;;;9.11;100.00;98531.78;6217905;23;20004;-76
2023/01/04 11:02:15;;;;;;;49.60;26.23;;;;;;;9.14;100.00;98539.69;6217871;23;20091;-77
2023/01/04 11:04:45;;;;;;;78.18;32.75;;;;;;;9.12;100.00;98535.34;6217797;23;20074;-75
2023/01/04 11:07:34;;;;;;;69.38;33.13;;;;;;;9.28;100.00;98544.47;6217701;23;20008;-75
2023/01/04 11:10:08;;;;;;;77.15;34.35;;;;;;;9.32;100.00;98537.22;6242370;23;20082;-76
2023/01/04 11:12:33;;;;;;;68.88;33.92;;;;;;;9.39;100.00;98542.22;6217644;23;20004;-76
2023/01/04 11:14:59;;;;;;;68.97;33.90;;;;;;;9.34;100.00;98540.69;6218411;23;20062;-75
2023/01/04 11:17:25;;;;;;;74.22;33.58;;;;;;;9.44;100.00;98547.38;6218034;23;20012;-77
2023/01/04 11:19:51;;;;;;;73.85;36.97;;;;;;;9.43;100.00;98543.84;6218571;23;20007;-76
2023/01/04 11:22:24;;;;;;;78.55;40.88;;;;;;;9.34;100.00;98551.34;6218330;23;20004;-77
2023/01/04 11:24:54;;;;;;;91.57;40.28;;;;;;;9.42;100.00;98544.75;6217769;23;20054;-77
2023/01/04 11:27:26;;;;;;;122.18;62.55;;;;;;;9.27;100.00;98540.94;6217822;23;20012;-78
2023/01/04 11:30:02;;;;;;;74.97;34.35;;;;;;;9.21;100.00;98542.97;6218041;23;20079;-76
2023/01/04 11:32:59;;;;;;;66.82;32.65;;;;;;;9.07;100.00;98526.66;6217695;23;20069;-78
2023/01/04 11:35:47;;;;;;;64.03;29.42;;;;;;;9.05;100.00;98534.72;6243137;23;20012;-78
2023/01/04 11:38:20;;;;;;;67.88;30.58;;;;;;;9.03;100.00;98535.72;6217861;23;20437;-78
2023/01/04 11:40:58;;;;;;;66.90;30.42;;;;;;;9.19;100.00;98537.72;6217659;23;20014;-78
2023/01/04 11:43:26;;;;;;;63.03;28.27;;;;;;;9.06;100.00;98525.78;6242800;23;20087;-78
2023/01/04 11:45:54;;;;;;;95.85;42.00;;;;;;;9.18;100.00;98530.63;6217893;23;20473;-78
2023/01/04 11:48:31;;;;;;;94.70;42.60;;;;;;;9.20;100.00;98534.09;6217419;23;20016;-78
2023/01/04 11:50:57;;;;;;;96.32;38.80;;;;;;;9.35;100.00;98532.59;6217652;23;20004;-78
2023/01/04 11:53:28;;;;;;;107.43;42.92;;;;;;;9.48;100.00;98543.63;6217685;23;20015;-79
2023/01/04 11:56:17;;;;;;;89.57;32.93;;;;;;;9.59;100.00;98544.06;6242675;23;20004;-79
2023/01/04 11:59:01;;;;;;;150.82;63.80;;;;;;;9.43;100.00;98527.81;6217527;23;20012;-79
2023/01/04 12:01:27;;;;;;;134.88;61.70;;;;;;;9.32;100.00;98530.03;6217807;23;20436;-78
2023/01/04 12:03:53;;;;;;;131.68;54.83;;;;;;;9.16;100.00;98526.28;6217340;23;20099;-78
2023/01/04 12:06:22;;;;;;;95.95;48.92;;;;;;;9.18;100.00;98535.09;6217590;23;20179;-77
2023/01/04 12:08:48;;;;;;;94.55;45.38;;;;;;;9.37;100.00;98541.41;6217285;23;20024;-77